createdAt,value
2022-08-26T00:01:55.665Z,78.21
2022-08-26T00:04:25.219Z,78.22
2022-08-26T00:06:54.008Z,77.88
2022-08-26T00:09:21.343Z,77.85
2022-08-26T00:11:47.785Z,78.11
2022-08-26T00:14:15.786Z,78.05
2022-08-26T00:16:47.782Z,78.09
2022-08-26T00:19:15.482Z,78.34
2022-08-26T00:21:41.922Z,78.28
2022-08-26T00:24:08.763Z,78.37
2022-08-26T00:26:35.329Z,78.33
2022-08-26T00:29:01.878Z,78.42
2022-08-26T00:31:28.801Z,78.41
2022-08-26T00:33:58.062Z,78.43
2022-08-26T00:36:24.908Z,78.42
2022-08-26T00:38:58.060Z,78.50
2022-08-26T00:41:24.559Z,78.45
2022-08-26T00:43:51.592Z,78.30
2022-08-26T00:46:31.380Z,78.15
2022-08-26T00:49:29.559Z,78.23
2022-08-26T00:52:00.556Z,78.00
2022-08-26T00:54:32.746Z,78.06
2022-08-26T00:57:03.132Z,78.52
2022-08-26T00:59:32.751Z,78.50
2022-08-26T01:01:59.759Z,78.44
2022-08-26T01:04:31.294Z,78.14
2022-08-26T01:06:57.887Z,78.44
2022-08-26T01:09:24.543Z,78.46
2022-08-26T01:11:55.274Z,78.51
2022-08-26T01:14:23.378Z,78.29
2022-08-26T01:16:50.394Z,78.36
2022-08-26T01:19:48.885Z,78.09
2022-08-26T01:22:32.822Z,78.44
2022-08-26T01:25:01.365Z,78.31
2022-08-26T01:27:32.933Z,78.21
2022-08-26T01:30:01.870Z,78.28
2022-08-26T01:32:29.530Z,78.52
2022-08-26T01:34:56.134Z,78.74
2022-08-26T01:37:27.089Z,78.72
2022-08-26T01:39:55.376Z,78.70
2022-08-26T01:42:23.929Z,78.76
2022-08-26T01:45:04.790Z,78.53
2022-08-26T01:47:35.548Z,78.73
2022-08-26T01:50:09.640Z,78.41
2022-08-26T01:52:40.402Z,78.92
2022-08-26T01:55:11.169Z,79.04
2022-08-26T01:57:37.876Z,79.17
2022-08-26T02:00:08.234Z,79.29
2022-08-26T02:02:34.617Z,78.88
2022-08-26T02:05:07.122Z,79.53
2022-08-26T02:07:34.169Z,79.49
2022-08-26T02:10:00.734Z,79.58
2022-08-26T02:12:27.525Z,79.42
2022-08-26T02:14:57.963Z,79.45
2022-08-26T02:17:30.484Z,79.49
2022-08-26T02:19:57.880Z,79.58
2022-08-26T02:22:24.883Z,79.45
2022-08-26T02:24:57.957Z,79.26
2022-08-26T02:27:32.915Z,79.35
2022-08-26T02:30:17.735Z,79.22
2022-08-26T02:32:44.254Z,79.31
2022-08-26T02:35:13.599Z,79.39
2022-08-26T02:37:45.053Z,79.54
2022-08-26T02:40:14.240Z,79.52
2022-08-26T02:42:41.289Z,79.62
2022-08-26T02:45:10.596Z,79.67
2022-08-26T02:47:37.425Z,79.74
2022-08-26T02:50:05.199Z,79.80
2022-08-26T02:52:31.781Z,80.02
2022-08-26T02:55:01.912Z,79.66
2022-08-26T02:57:28.964Z,79.73
2022-08-26T02:59:55.409Z,79.82
2022-08-26T03:02:22.177Z,79.88
2022-08-26T03:04:58.042Z,80.15
2022-08-26T03:07:28.950Z,79.89
2022-08-26T03:09:57.099Z,80.19
2022-08-26T03:12:26.005Z,80.38
2022-08-26T03:14:52.980Z,80.41
2022-08-26T03:17:19.674Z,80.66
2022-08-26T03:19:46.141Z,80.73
2022-08-26T03:22:14.510Z,80.86
2022-08-26T03:24:41.505Z,80.71
2022-08-26T03:27:13.389Z,80.77
2022-08-26T03:30:00.135Z,80.72
2022-08-26T03:32:26.940Z,80.49
2022-08-26T03:34:53.976Z,80.55
2022-08-26T03:37:21.541Z,80.45
2022-08-26T03:39:48.410Z,80.68
2022-08-26T03:42:15.902Z,80.49
2022-08-26T03:44:42.396Z,80.55
2022-08-26T03:47:09.476Z,80.70
2022-08-26T03:49:38.814Z,80.48
2022-08-26T03:52:06.834Z,80.56
2022-08-26T03:54:33.499Z,80.44
2022-08-26T03:57:00.145Z,80.36
2022-08-26T03:59:27.295Z,80.12
2022-08-26T04:01:54.327Z,79.92
2022-08-26T04:04:22.771Z,79.89
2022-08-26T04:06:57.420Z,80.09
2022-08-26T04:09:24.587Z,79.69
2022-08-26T04:11:51.585Z,79.80
2022-08-26T04:14:20.412Z,79.91
2022-08-26T04:16:48.159Z,79.98
2022-08-26T04:19:15.890Z,79.93
2022-08-26T04:21:42.786Z,80.02
2022-08-26T04:24:12.121Z,80.04
2022-08-26T04:26:42.842Z,79.93
2022-08-26T04:29:14.388Z,79.86
2022-08-26T04:31:41.454Z,79.46
2022-08-26T04:34:08.365Z,79.68
2022-08-26T04:36:37.811Z,79.43
2022-08-26T04:39:05.242Z,79.34
2022-08-26T04:41:32.442Z,79.41
2022-08-26T04:43:59.102Z,79.31
2022-08-26T04:46:25.968Z,80.03
2022-08-26T04:48:53.912Z,79.70
2022-08-26T04:51:23.742Z,79.70
2022-08-26T04:53:50.190Z,79.80
2022-08-26T04:56:16.914Z,79.54
2022-08-26T04:58:43.382Z,79.52
2022-08-26T05:01:10.066Z,79.60
2022-08-26T05:03:36.961Z,79.60
2022-08-26T05:06:05.508Z,79.68
2022-08-26T05:08:32.153Z,79.78
2022-08-26T05:10:58.874Z,79.42
2022-08-26T05:13:27.767Z,79.40
2022-08-26T05:15:54.697Z,79.60
2022-08-26T05:18:27.511Z,79.85
2022-08-26T05:20:55.037Z,79.40
2022-08-26T05:23:23.202Z,79.67
2022-08-26T05:25:55.791Z,79.68
2022-08-26T05:28:26.448Z,79.61
2022-08-26T05:30:53.349Z,79.45
2022-08-26T05:33:20.132Z,79.41
2022-08-26T05:35:46.713Z,79.29
2022-08-26T05:38:16.917Z,79.29
2022-08-26T05:40:47.311Z,79.20
2022-08-26T05:43:14.121Z,79.17
2022-08-26T05:45:46.735Z,79.04
2022-08-26T05:48:16.133Z,79.18
2022-08-26T05:50:48.102Z,79.24
2022-08-26T05:53:17.994Z,79.03
2022-08-26T05:55:50.568Z,78.86
2022-08-26T05:58:20.179Z,78.90
2022-08-26T06:00:56.686Z,78.75
2022-08-26T06:03:23.068Z,78.67
2022-08-26T06:05:49.514Z,78.84
2022-08-26T06:08:15.928Z,78.89
2022-08-26T06:10:52.740Z,78.75
2022-08-26T06:13:31.865Z,78.82
2022-08-26T06:16:00.317Z,78.66
2022-08-26T06:18:36.260Z,78.70
2022-08-26T06:21:29.441Z,78.54
2022-08-26T06:24:20.320Z,78.42
2022-08-26T06:26:50.979Z,78.42
2022-08-26T06:29:24.394Z,78.06
2022-08-26T06:31:53.188Z,78.05
2022-08-26T06:34:19.766Z,78.00
2022-08-26T06:36:47.817Z,78.18
2022-08-26T06:39:16.625Z,78.00
2022-08-26T06:41:44.853Z,78.09
2022-08-26T06:44:12.928Z,77.82
2022-08-26T06:46:40.905Z,77.42
2022-08-26T06:49:07.808Z,76.93
2022-08-26T06:51:37.397Z,76.98
2022-08-26T06:54:05.659Z,76.91
2022-08-26T06:56:36.695Z,76.28
2022-08-26T06:59:04.156Z,76.11
2022-08-26T07:01:37.424Z,75.98
2022-08-26T07:04:07.896Z,75.83
2022-08-26T07:06:40.440Z,75.86
2022-08-26T07:09:09.979Z,75.58
2022-08-26T07:11:38.015Z,75.89
2022-08-26T07:14:07.194Z,75.75
2022-08-26T07:16:36.933Z,75.97
2022-08-26T07:19:10.869Z,75.40
2022-08-26T07:21:39.982Z,75.71
2022-08-26T07:24:06.454Z,75.47
2022-08-26T07:26:35.844Z,75.41
2022-08-26T07:29:03.028Z,75.37
2022-08-26T07:31:39.606Z,75.53
2022-08-26T07:34:10.713Z,75.48
2022-08-26T07:36:38.730Z,74.93
2022-08-26T07:39:06.193Z,74.88
2022-08-26T07:41:33.004Z,74.41
2022-08-26T07:43:59.469Z,74.59
2022-08-26T07:46:27.134Z,74.45
2022-08-26T07:48:57.120Z,74.52
2022-08-26T07:51:26.984Z,74.71
2022-08-26T07:53:54.748Z,74.80
2022-08-26T07:56:22.941Z,74.63
2022-08-26T07:58:51.717Z,74.48
2022-08-26T08:01:20.037Z,74.32
2022-08-26T08:03:47.999Z,74.47
2022-08-26T08:06:17.944Z,74.23
2022-08-26T08:08:44.620Z,74.00
2022-08-26T08:11:12.418Z,74.16
2022-08-26T08:13:39.760Z,74.28
2022-08-26T08:16:12.731Z,73.84
2022-08-26T08:18:40.464Z,73.60
2022-08-26T08:21:23.822Z,73.99
2022-08-26T08:23:52.244Z,74.30
2022-08-26T08:26:25.672Z,74.36
2022-08-26T08:28:56.905Z,73.98
2022-08-26T08:34:16.351Z,73.99
2022-08-26T08:36:46.220Z,74.14
2022-08-26T08:39:12.799Z,73.78
2022-08-26T08:42:16.876Z,74.05
2022-08-26T08:44:51.936Z,73.77
2022-08-26T08:47:39.443Z,74.09
2022-08-26T08:50:35.028Z,73.68
2022-08-26T08:53:28.250Z,74.11
2022-08-26T08:56:04.866Z,73.87
2022-08-26T08:58:51.554Z,73.59
2022-08-26T09:01:45.369Z,73.71
2022-08-26T09:04:54.637Z,73.85
2022-08-26T09:07:37.616Z,73.49
2022-08-26T09:10:19.310Z,73.54
2022-08-26T09:12:47.354Z,73.43
2022-08-26T09:15:25.467Z,73.23
2022-08-26T09:17:58.286Z,73.09
2022-08-26T09:20:50.946Z,73.09
2022-08-26T09:23:18.221Z,72.88
2022-08-26T09:25:57.337Z,72.53
2022-08-26T09:28:26.597Z,72.59
2022-08-26T09:31:14.094Z,72.54
2022-08-26T09:33:42.139Z,72.64
2022-08-26T09:36:44.033Z,72.67
2022-08-26T09:39:29.378Z,72.48
2022-08-26T09:42:22.282Z,72.32
2022-08-26T09:45:04.970Z,71.86
2022-08-26T09:47:54.325Z,71.84
2022-08-26T09:50:29.479Z,72.07
2022-08-26T09:53:28.533Z,71.84
2022-08-26T09:56:32.555Z,71.24
2022-08-26T09:58:59.941Z,71.20
2022-08-26T10:01:44.798Z,70.65
2022-08-26T10:04:14.601Z,70.70
2022-08-26T10:06:57.478Z,70.60
2022-08-26T10:09:25.998Z,70.35
2022-08-26T10:11:56.671Z,70.14
2022-08-26T10:14:32.422Z,70.36
2022-08-26T10:17:07.481Z,70.02
2022-08-26T10:19:57.871Z,70.22
2022-08-26T10:22:38.340Z,70.32
2022-08-26T10:25:09.454Z,70.35
2022-08-26T10:27:53.430Z,70.43
2022-08-26T10:30:23.792Z,69.87
2022-08-26T10:33:10.969Z,69.47
2022-08-26T10:35:44.683Z,69.03
2022-08-26T10:38:16.881Z,68.82
2022-08-26T10:40:55.640Z,68.98
2022-08-26T10:43:41.010Z,68.71
2022-08-26T10:46:17.104Z,69.33
2022-08-26T10:48:56.462Z,68.81
2022-08-26T10:51:28.770Z,69.20
2022-08-26T10:54:11.909Z,68.79
2022-08-26T10:56:54.591Z,67.99
2022-08-26T10:59:46.056Z,67.53
2022-08-26T11:02:25.355Z,67.11
2022-08-26T11:05:02.926Z,66.39
2022-08-26T11:07:40.356Z,65.97
2022-08-26T11:10:18.840Z,65.68
2022-08-26T11:12:45.495Z,66.21
2022-08-26T11:15:25.087Z,65.81
2022-08-26T11:17:51.625Z,65.40
2022-08-26T11:20:41.581Z,63.97
2022-08-26T11:23:20.780Z,63.75
2022-08-26T11:25:56.943Z,63.81
2022-08-26T11:28:50.697Z,63.31
2022-08-26T11:31:18.528Z,63.63
2022-08-26T11:33:54.681Z,63.85
2022-08-26T11:36:47.737Z,64.17
2022-08-26T11:39:54.767Z,63.29
2022-08-26T11:42:34.474Z,63.37
2022-08-26T11:45:13.322Z,62.82
2022-08-26T11:47:39.966Z,63.18
2022-08-26T11:50:13.441Z,63.20
2022-08-26T11:52:39.958Z,62.84
2022-08-26T11:55:09.532Z,63.21
2022-08-26T11:57:42.967Z,63.25
2022-08-26T12:00:14.262Z,63.04
2022-08-26T12:02:43.660Z,62.90
2022-08-26T12:05:15.016Z,62.76
2022-08-26T12:07:42.573Z,63.41
2022-08-26T12:10:10.792Z,63.49
2022-08-26T12:12:39.428Z,63.54
2022-08-26T12:15:10.591Z,63.82
2022-08-26T12:17:38.655Z,64.25
2022-08-26T12:20:06.374Z,64.43
2022-08-26T12:22:34.638Z,64.74
2022-08-26T12:25:08.494Z,64.74
2022-08-26T12:27:41.530Z,64.05
2022-08-26T12:30:12.461Z,63.98
2022-08-26T12:32:51.060Z,63.99
2022-08-26T12:35:26.027Z,63.03
2022-08-26T12:37:54.328Z,62.93
2022-08-26T12:40:35.912Z,62.77
2022-08-26T12:43:04.936Z,63.43
2022-08-26T12:45:34.598Z,63.44
2022-08-26T12:48:10.558Z,63.45
2022-08-26T12:50:39.654Z,63.78
2022-08-26T12:53:09.003Z,64.41
2022-08-26T12:55:45.162Z,64.11
2022-08-26T12:58:11.634Z,64.28
2022-08-26T13:00:40.654Z,64.29
2022-08-26T13:03:29.329Z,65.63
2022-08-26T13:06:15.537Z,65.69
2022-08-26T13:08:48.335Z,64.99
2022-08-26T13:11:20.035Z,64.59
2022-08-26T13:13:51.736Z,63.38
2022-08-26T13:16:20.109Z,61.62
2022-08-26T13:18:51.956Z,61.65
2022-08-26T13:21:25.202Z,61.29
2022-08-26T13:23:51.991Z,60.60
2022-08-26T13:26:19.002Z,60.60
2022-08-26T13:28:45.762Z,61.06
2022-08-26T13:31:29.646Z,61.15
2022-08-26T13:33:57.081Z,60.90
2022-08-26T13:36:23.702Z,61.31
2022-08-26T13:38:51.937Z,61.61
2022-08-26T13:41:29.213Z,61.07
2022-08-26T13:43:56.074Z,60.98
2022-08-26T13:46:22.617Z,61.55
2022-08-26T13:48:49.082Z,61.26
2022-08-26T13:51:16.522Z,61.61
2022-08-26T13:53:43.036Z,61.47
2022-08-26T13:56:11.101Z,62.18
2022-08-26T13:58:37.746Z,61.98
2022-08-26T14:01:04.277Z,62.26
2022-08-26T14:03:30.902Z,62.42
2022-08-26T14:05:57.570Z,62.05
2022-08-26T14:08:24.084Z,62.50
2022-08-26T14:10:50.563Z,62.64
2022-08-26T14:13:17.201Z,64.73
2022-08-26T14:15:44.043Z,65.53
2022-08-26T14:18:13.885Z,66.45
2022-08-26T14:20:48.039Z,66.65
2022-08-26T14:23:15.302Z,66.92
2022-08-26T14:25:42.451Z,66.89
2022-08-26T14:28:09.257Z,66.65
2022-08-26T14:30:39.845Z,66.67
2022-08-26T14:33:06.462Z,66.47
2022-08-26T14:35:32.966Z,66.46
2022-08-26T14:37:59.441Z,65.79
2022-08-26T14:40:30.218Z,65.55
2022-08-26T14:42:58.662Z,65.20
2022-08-26T14:45:27.946Z,64.48
2022-08-26T14:47:56.674Z,64.56
2022-08-26T14:50:25.899Z,63.87
2022-08-26T14:53:10.870Z,63.84
2022-08-26T14:55:40.370Z,63.67
2022-08-26T14:58:06.889Z,64.25
2022-08-26T15:00:33.471Z,63.29
2022-08-26T15:03:00.080Z,63.83
2022-08-26T15:05:26.696Z,64.40
2022-08-26T15:07:53.363Z,64.68
2022-08-26T15:10:20.301Z,64.18
2022-08-26T15:12:47.122Z,64.05
2022-08-26T15:15:16.203Z,64.01
2022-08-26T15:17:43.228Z,64.14
2022-08-26T15:20:11.745Z,62.76
2022-08-26T15:22:40.006Z,62.31
2022-08-26T15:25:07.557Z,62.04
2022-08-26T15:27:34.080Z,62.02
2022-08-26T15:30:09.286Z,61.58
2022-08-26T15:32:35.904Z,61.71
2022-08-26T15:35:06.855Z,61.64
2022-08-26T15:37:35.737Z,62.10
2022-08-26T15:40:02.293Z,62.41
2022-08-26T15:42:28.721Z,61.88
2022-08-26T15:44:55.633Z,62.65
2022-08-26T15:47:23.676Z,62.40
2022-08-26T15:49:50.086Z,62.45
2022-08-26T15:52:17.064Z,62.59
2022-08-26T15:54:43.449Z,62.78
2022-08-26T15:57:12.387Z,63.05
2022-08-26T15:59:40.120Z,63.01
2022-08-26T16:02:07.324Z,63.25
2022-08-26T16:04:34.139Z,62.75
2022-08-26T16:07:00.638Z,62.05
2022-08-26T16:09:27.770Z,61.76
2022-08-26T16:11:54.960Z,61.58
2022-08-26T16:14:21.823Z,62.08
2022-08-26T16:16:48.613Z,62.26
2022-08-26T16:19:15.381Z,61.94
2022-08-26T16:21:42.387Z,62.31
2022-08-26T16:24:09.659Z,62.55
2022-08-26T16:26:38.011Z,62.70
2022-08-26T16:29:09.461Z,62.43
2022-08-26T16:31:39.111Z,62.68
2022-08-26T16:34:09.184Z,62.63
2022-08-26T16:36:37.646Z,61.70
2022-08-26T16:39:05.967Z,61.82
2022-08-26T16:41:32.595Z,61.67
2022-08-26T16:43:59.078Z,61.35
2022-08-26T16:46:27.115Z,61.89
2022-08-26T16:48:55.916Z,61.68
2022-08-26T16:51:23.554Z,61.91
2022-08-26T16:53:51.534Z,61.93
2022-08-26T16:56:21.336Z,61.78
2022-08-26T16:58:50.782Z,62.06
2022-08-26T17:01:17.956Z,62.08
2022-08-26T17:03:44.370Z,62.11
2022-08-26T17:06:11.140Z,62.25
2022-08-26T17:08:39.289Z,62.05
2022-08-26T17:11:06.845Z,62.07
2022-08-26T17:13:35.181Z,62.69
2022-08-26T17:16:03.901Z,62.12
2022-08-26T17:18:32.334Z,61.82
2022-08-26T17:21:08.065Z,61.96
2022-08-26T17:23:35.695Z,61.99
2022-08-26T17:26:02.758Z,61.82
2022-08-26T17:28:29.400Z,61.62
2022-08-26T17:30:59.496Z,61.52
2022-08-26T17:33:26.608Z,61.50
2022-08-26T17:35:53.743Z,61.56
2022-08-26T17:38:21.392Z,61.56
2022-08-26T17:40:48.359Z,61.87
2022-08-26T17:43:14.832Z,61.91
2022-08-26T17:45:41.505Z,61.62
2022-08-26T17:48:08.418Z,61.90
2022-08-26T17:50:35.640Z,61.90
2022-08-26T17:53:02.070Z,61.89
2022-08-26T17:55:29.093Z,61.71
2022-08-26T17:57:55.528Z,61.83
2022-08-26T18:00:26.399Z,61.76
2022-08-26T18:02:54.349Z,61.77
2022-08-26T18:05:22.224Z,61.62
2022-08-26T18:07:48.747Z,61.88
2022-08-26T18:10:17.501Z,62.09
2022-08-26T18:12:45.165Z,62.39
2022-08-26T18:15:13.661Z,62.63
2022-08-26T18:17:40.310Z,62.81
2022-08-26T18:20:09.124Z,63.02
2022-08-26T18:22:35.690Z,63.16
2022-08-26T18:25:02.181Z,63.32
2022-08-26T18:27:28.910Z,63.17
2022-08-26T18:29:55.918Z,63.39
2022-08-26T18:32:22.454Z,63.41
2022-08-26T18:34:48.926Z,63.21
2022-08-26T18:37:15.525Z,63.19
2022-08-26T18:39:42.061Z,63.46
2022-08-26T18:42:08.942Z,63.42
2022-08-26T18:44:36.080Z,63.19
2022-08-26T18:47:02.646Z,63.12
2022-08-26T18:49:29.386Z,62.85
2022-08-26T18:51:56.021Z,62.38
2022-08-26T18:54:22.630Z,62.77
2022-08-26T18:56:49.299Z,62.58
2022-08-26T18:59:15.957Z,62.93
2022-08-26T19:01:43.385Z,62.84
2022-08-26T19:04:14.080Z,62.96
2022-08-26T19:06:43.652Z,63.15
2022-08-26T19:09:11.773Z,63.04
2022-08-26T19:11:42.831Z,62.93
2022-08-26T19:14:13.585Z,63.35
2022-08-26T19:16:41.526Z,63.13
2022-08-26T19:19:08.098Z,63.58
2022-08-26T19:21:36.593Z,63.44
2022-08-26T19:24:06.014Z,63.50
2022-08-26T19:26:33.104Z,63.34
2022-08-26T19:29:00.301Z,63.49
2022-08-26T19:31:27.610Z,63.62
2022-08-26T19:33:54.273Z,63.74
2022-08-26T19:36:23.697Z,63.74
2022-08-26T19:38:50.619Z,63.90
2022-08-26T19:41:20.442Z,63.89
2022-08-26T19:43:47.799Z,63.50
2022-08-26T19:46:20.030Z,63.55
2022-08-26T19:48:47.416Z,63.75
2022-08-26T19:51:19.458Z,63.96
2022-08-26T19:53:48.215Z,64.15
2022-08-26T19:56:15.835Z,64.19
2022-08-26T19:58:43.176Z,64.13
2022-08-26T20:01:11.017Z,64.53
2022-08-26T20:03:38.482Z,64.36
2022-08-26T20:06:06.831Z,64.51
2022-08-26T20:08:35.388Z,64.54
2022-08-26T20:11:05.292Z,64.92
2022-08-26T20:13:32.565Z,64.80
2022-08-26T20:15:59.091Z,65.24
2022-08-26T20:18:44.375Z,65.42
2022-08-26T20:21:26.378Z,65.50
2022-08-26T20:24:00.624Z,65.45
2022-08-26T20:26:32.065Z,65.36
2022-08-26T20:28:59.122Z,65.58
2022-08-26T20:31:26.989Z,65.68
2022-08-26T20:33:54.117Z,65.77
2022-08-26T20:36:23.201Z,65.74
2022-08-26T20:38:50.286Z,66.11
2022-08-26T20:41:17.796Z,65.88
2022-08-26T20:43:44.614Z,65.55
2022-08-26T20:46:16.925Z,65.71
2022-08-26T20:48:45.734Z,65.57
2022-08-26T20:51:12.307Z,65.55
2022-08-26T20:53:38.855Z,65.45
2022-08-26T20:56:08.774Z,65.38
2022-08-26T20:58:35.532Z,65.28
2022-08-26T21:01:07.324Z,65.46
2022-08-26T21:03:35.150Z,65.29
2022-08-26T21:06:03.801Z,65.24
2022-08-26T21:08:32.696Z,65.29
2022-08-26T21:11:00.348Z,64.74
2022-08-26T21:13:26.895Z,65.42
2022-08-26T21:15:57.223Z,65.28
2022-08-26T21:18:23.946Z,65.14
2022-08-26T21:20:51.529Z,65.27
2022-08-26T21:23:18.789Z,65.51
2022-08-26T21:25:46.633Z,65.58
2022-08-26T21:28:13.550Z,65.53
2022-08-26T21:30:40.915Z,65.54
2022-08-26T21:33:08.247Z,65.43
2022-08-26T21:35:34.967Z,65.70
2022-08-26T21:38:01.779Z,65.22
2022-08-26T21:40:28.290Z,65.42
2022-08-26T21:42:54.791Z,65.45
2022-08-26T21:45:21.453Z,65.58
2022-08-26T21:47:48.251Z,65.50
2022-08-26T21:50:14.674Z,65.43
2022-08-26T21:52:41.197Z,65.39
2022-08-26T21:55:08.876Z,65.43
2022-08-26T21:57:36.408Z,65.52
2022-08-26T22:00:04.968Z,65.63
2022-08-26T22:02:31.449Z,65.48
2022-08-26T22:04:57.937Z,65.72
2022-08-26T22:07:24.478Z,65.47
2022-08-26T22:09:50.941Z,65.64
2022-08-26T22:12:18.230Z,65.74
2022-08-26T22:14:45.587Z,65.49
2022-08-26T22:17:12.378Z,65.40
2022-08-26T22:19:46.266Z,65.32
2022-08-26T22:22:14.096Z,65.30
2022-08-26T22:24:40.890Z,65.14
2022-08-26T22:27:07.527Z,65.47
2022-08-26T22:29:34.269Z,65.59
2022-08-26T22:32:01.386Z,65.57
2022-08-26T22:34:28.255Z,65.54
2022-08-26T22:36:56.710Z,65.48
2022-08-26T22:39:25.002Z,65.48
2022-08-26T22:41:53.256Z,65.45
2022-08-26T22:44:21.399Z,65.37
2022-08-26T22:46:49.903Z,65.50
2022-08-26T22:49:16.724Z,65.55
2022-08-26T22:51:44.681Z,65.45
2022-08-26T22:54:11.529Z,65.41
2022-08-26T22:56:39.292Z,65.73
2022-08-26T22:59:08.361Z,65.69
2022-08-26T23:01:37.805Z,65.45
2022-08-26T23:04:06.650Z,65.56
2022-08-26T23:06:38.830Z,65.65
2022-08-26T23:09:07.234Z,65.62
2022-08-26T23:11:34.399Z,65.89
2022-08-26T23:14:02.260Z,65.99
2022-08-26T23:16:39.284Z,65.69
2022-08-26T23:19:06.749Z,65.63
2022-08-26T23:21:33.344Z,65.68
2022-08-26T23:24:00.927Z,65.92
2022-08-26T23:26:27.558Z,65.90
2022-08-26T23:28:54.850Z,65.89
2022-08-26T23:31:21.407Z,65.99
2022-08-26T23:34:06.630Z,66.17
2022-08-26T23:36:35.050Z,66.36
2022-08-26T23:39:03.662Z,66.58
2022-08-26T23:41:30.100Z,66.49
2022-08-26T23:43:58.711Z,66.22
2022-08-26T23:46:28.245Z,66.14
2022-08-26T23:48:54.659Z,66.10
2022-08-26T23:51:39.627Z,66.62
2022-08-26T23:54:07.178Z,67.51
2022-08-26T23:56:34.776Z,67.65
2022-08-26T23:59:01.279Z,67.71
